createdAt,value
2019-06-26T00:01:44.106Z,20.90
2019-06-26T00:04:16.148Z,20.90
2019-06-26T00:06:47.890Z,20.93
2019-06-26T00:09:20.959Z,20.82
2019-06-26T00:11:53.193Z,20.83
2019-06-26T00:14:25.090Z,20.88
2019-06-26T00:16:56.760Z,20.89
2019-06-26T00:19:28.583Z,20.85
2019-06-26T00:22:01.496Z,20.93
2019-06-26T00:24:33.247Z,20.89
2019-06-26T00:27:05.074Z,20.89
2019-06-26T00:29:36.828Z,20.89
2019-06-26T00:32:08.566Z,20.81
2019-06-26T00:34:40.307Z,20.70
2019-06-26T00:37:12.049Z,20.59
2019-06-26T00:39:43.790Z,20.55
2019-06-26T00:42:15.638Z,20.54
2019-06-26T00:44:47.370Z,20.51
2019-06-26T00:47:19.125Z,20.44
2019-06-26T00:49:52.126Z,20.38
2019-06-26T00:52:23.870Z,20.37
2019-06-26T00:54:55.602Z,20.37
2019-06-26T00:57:27.342Z,20.41
2019-06-26T01:00:00.740Z,20.34
2019-06-26T01:02:34.247Z,20.31
2019-06-26T01:05:12.598Z,20.31
2019-06-26T01:07:44.247Z,20.32
2019-06-26T01:10:16.787Z,20.37
2019-06-26T01:12:48.443Z,20.36
2019-06-26T01:15:20.449Z,20.32
2019-06-26T01:17:53.578Z,20.27
2019-06-26T01:20:25.580Z,20.25
2019-06-26T01:22:57.502Z,20.23
2019-06-26T01:25:29.343Z,20.23
2019-06-26T01:28:02.333Z,20.20
2019-06-26T01:30:34.064Z,20.18
2019-06-26T01:33:05.883Z,20.16
2019-06-26T01:35:37.917Z,20.15
2019-06-26T01:38:10.433Z,20.18
2019-06-26T01:40:42.269Z,20.16
2019-06-26T01:43:14.113Z,20.19
2019-06-26T01:45:45.849Z,20.17
2019-06-26T01:48:17.597Z,20.16
2019-06-26T01:50:49.346Z,20.18
2019-06-26T01:53:21.082Z,20.23
2019-06-26T01:55:53.799Z,20.24
2019-06-26T01:58:25.543Z,20.24
2019-06-26T02:00:57.290Z,20.19
2019-06-26T02:03:29.032Z,20.12
2019-06-26T02:06:00.777Z,20.11
2019-06-26T02:08:33.470Z,20.08
2019-06-26T02:11:05.861Z,20.10
2019-06-26T02:13:37.506Z,20.09
2019-06-26T02:16:09.350Z,20.08
2019-06-26T02:18:45.765Z,20.02
2019-06-26T02:21:17.497Z,20.00
2019-06-26T02:23:49.242Z,19.95
2019-06-26T02:26:21.552Z,19.95
2019-06-26T02:28:53.399Z,19.97
2019-06-26T02:31:25.144Z,19.99
2019-06-26T02:33:56.893Z,20.02
2019-06-26T02:36:28.638Z,20.08
2019-06-26T02:39:00.506Z,20.13
2019-06-26T02:41:32.808Z,20.18
2019-06-26T02:44:04.928Z,20.27
2019-06-26T02:46:36.918Z,20.29
2019-06-26T02:49:08.665Z,20.31
2019-06-26T02:51:40.514Z,20.37
2019-06-26T02:54:12.260Z,20.44
2019-06-26T02:56:43.958Z,20.51
2019-06-26T02:59:15.716Z,20.58
2019-06-26T03:01:47.476Z,20.65
2019-06-26T03:04:19.293Z,20.69
2019-06-26T03:06:51.046Z,20.80
2019-06-26T03:09:23.509Z,20.87
2019-06-26T03:11:55.163Z,20.97
2019-06-26T03:14:26.909Z,21.04
2019-06-26T03:16:58.661Z,21.14
2019-06-26T03:19:30.413Z,21.20
2019-06-26T03:22:02.165Z,21.25
2019-06-26T03:24:33.909Z,21.35
2019-06-26T03:27:08.891Z,21.48
2019-06-26T03:29:39.258Z,21.58
2019-06-26T03:32:11.104Z,21.67
2019-06-26T03:34:42.835Z,21.81
2019-06-26T03:37:14.589Z,21.97
2019-06-26T03:39:47.598Z,22.26
2019-06-26T03:42:19.346Z,23.41
2019-06-26T03:44:51.087Z,24.84
2019-06-26T03:47:22.820Z,26.76
2019-06-26T03:49:54.571Z,28.12
2019-06-26T03:52:26.320Z,29.10
2019-06-26T03:54:58.156Z,29.99
2019-06-26T03:57:29.914Z,30.83
2019-06-26T04:00:01.990Z,30.87
2019-06-26T04:02:37.801Z,32.07
2019-06-26T04:05:11.263Z,32.87
2019-06-26T04:07:43.006Z,33.42
2019-06-26T04:10:14.998Z,34.04
2019-06-26T04:12:46.836Z,34.74
2019-06-26T04:15:18.923Z,35.21
2019-06-26T04:17:50.702Z,35.73
2019-06-26T04:20:22.573Z,36.30
2019-06-26T04:22:55.551Z,36.72
2019-06-26T04:25:27.205Z,36.98
2019-06-26T04:28:00.277Z,37.51
2019-06-26T04:30:31.922Z,38.01
2019-06-26T04:33:03.836Z,38.22
2019-06-26T04:35:35.475Z,38.72
2019-06-26T04:38:07.218Z,38.95
2019-06-26T04:40:38.962Z,39.31
2019-06-26T04:43:10.705Z,39.61
2019-06-26T04:45:57.152Z,39.94
2019-06-26T04:48:16.081Z,40.40
2019-06-26T04:50:47.820Z,40.63
2019-06-26T04:53:19.668Z,40.52
2019-06-26T04:55:51.404Z,40.09
2019-06-26T04:58:23.141Z,39.46
2019-06-26T05:00:57.323Z,39.35
2019-06-26T05:03:29.071Z,39.20
2019-06-26T05:06:00.931Z,38.66
2019-06-26T05:08:32.685Z,38.85
2019-06-26T05:11:04.707Z,39.65
2019-06-26T05:13:36.576Z,40.10
2019-06-26T05:16:14.897Z,40.82
2019-06-26T05:18:41.570Z,41.25
2019-06-26T05:21:13.330Z,40.77
2019-06-26T05:23:45.094Z,41.14
2019-06-26T05:26:16.736Z,40.70
2019-06-26T05:28:48.604Z,40.34
2019-06-26T05:31:20.942Z,40.55
2019-06-26T09:58:18.939Z,39.39
2019-06-26T10:00:50.850Z,39.45
2019-06-26T10:03:22.590Z,39.70
2019-06-26T10:05:54.323Z,39.54
2019-06-26T10:08:26.405Z,39.35
2019-06-26T10:11:05.378Z,39.61
2019-06-26T10:13:37.090Z,39.41
2019-06-26T10:16:09.033Z,39.04
2019-06-26T10:18:40.974Z,39.20
2019-06-26T10:21:12.815Z,39.38
2019-06-26T10:23:44.570Z,39.56
2019-06-26T10:26:16.324Z,39.73
2019-06-26T10:28:48.071Z,39.82
2019-06-26T10:31:19.838Z,39.65
2019-06-26T10:33:51.579Z,39.88
2019-06-26T10:36:24.693Z,40.06
2019-06-26T10:38:58.182Z,40.15
2019-06-26T10:41:29.975Z,40.47
2019-06-26T10:44:01.799Z,39.83
2019-06-26T10:46:35.278Z,40.07
2019-06-26T10:49:07.255Z,40.09
2019-06-26T10:51:39.705Z,40.26
2019-06-26T10:54:11.618Z,40.48
2019-06-26T10:56:54.065Z,39.98
2019-06-26T10:59:36.976Z,39.86
2019-06-26T11:02:12.430Z,40.11
2019-06-26T11:04:50.848Z,40.42
2019-06-26T11:07:22.641Z,40.51
2019-06-26T11:09:54.463Z,40.60
2019-06-26T11:12:26.187Z,40.76
2019-06-26T11:14:57.943Z,40.39
2019-06-26T11:17:29.893Z,40.26
2019-06-26T11:20:01.549Z,40.14
2019-06-26T11:22:33.355Z,40.35
2019-06-26T11:25:07.110Z,40.49
2019-06-26T11:27:38.816Z,40.44
2019-06-26T11:30:11.985Z,40.24
2019-06-26T11:32:43.691Z,40.34
2019-06-26T11:35:15.998Z,40.33
2019-06-26T11:37:47.972Z,40.70
2019-06-26T11:40:20.314Z,40.45
2019-06-26T11:42:52.097Z,40.49
2019-06-26T11:45:24.782Z,40.45
2019-06-26T11:47:57.748Z,40.37
2019-06-26T11:50:30.393Z,40.71
2019-06-26T11:53:03.056Z,40.54
2019-06-26T11:55:34.982Z,40.54
2019-06-26T11:58:06.827Z,40.74
2019-06-26T12:00:41.728Z,40.81
2019-06-26T12:03:14.560Z,41.00
2019-06-26T12:05:48.137Z,40.72
2019-06-26T12:08:22.579Z,40.78
2019-06-26T12:10:54.333Z,40.69
2019-06-26T12:13:26.157Z,40.59
2019-06-26T12:15:58.163Z,40.57
2019-06-26T12:18:29.911Z,40.25
2019-06-26T12:21:01.898Z,40.49
2019-06-26T12:23:33.756Z,40.53
2019-06-26T12:26:06.931Z,40.72
2019-06-26T12:28:46.921Z,40.50
2019-06-26T12:31:23.164Z,40.55
2019-06-26T12:34:02.890Z,40.84
2019-06-26T12:36:39.001Z,40.86
2019-06-26T12:39:13.414Z,40.95
2019-06-26T12:41:52.111Z,40.87
2019-06-26T12:44:31.907Z,40.75
2019-06-26T12:47:09.123Z,40.32
2019-06-26T12:49:42.956Z,40.21
2019-06-26T12:52:22.235Z,40.38
2019-06-26T12:55:00.194Z,40.41
2019-06-26T12:57:32.648Z,40.47
2019-06-26T13:00:11.781Z,40.31
2019-06-26T13:02:57.708Z,40.54
2019-06-26T13:05:32.899Z,40.53
2019-06-26T13:08:09.941Z,40.65
2019-06-26T13:10:49.435Z,40.51
2019-06-26T13:13:22.750Z,40.69
2019-06-26T13:16:02.442Z,40.54
2019-06-26T13:18:35.000Z,40.26
2019-06-26T13:21:06.717Z,39.99
2019-06-26T13:23:42.200Z,40.14
2019-06-26T13:26:22.715Z,40.34
2019-06-26T13:28:57.047Z,40.56
2019-06-26T13:31:30.890Z,40.30
2019-06-26T13:34:07.518Z,40.49
2019-06-26T13:36:43.647Z,40.57
2019-06-26T13:39:19.412Z,40.32
2019-06-26T13:41:53.523Z,39.88
2019-06-26T13:44:27.784Z,40.07
2019-06-26T13:47:16.831Z,40.01
2019-06-26T13:49:50.475Z,40.06
2019-06-26T13:52:22.548Z,40.19
2019-06-26T13:54:57.225Z,40.42
2019-06-26T13:57:31.778Z,40.42
2019-06-26T14:00:09.985Z,40.43
2019-06-26T14:02:50.955Z,39.96
2019-06-26T14:05:22.819Z,40.29
2019-06-26T14:07:55.561Z,40.36
2019-06-26T14:10:27.519Z,40.34
2019-06-26T14:13:00.550Z,40.32
2019-06-26T14:15:33.386Z,40.52
2019-06-26T14:18:05.557Z,40.40
2019-06-26T14:20:37.571Z,40.35
2019-06-26T14:23:10.003Z,40.32
2019-06-26T14:25:41.764Z,40.23
2019-06-26T14:28:13.492Z,40.21
2019-06-26T14:30:45.233Z,40.06
2019-06-26T14:33:17.065Z,39.77
2019-06-26T14:35:49.089Z,39.64
2019-06-26T14:38:20.822Z,39.36
2019-06-26T14:40:52.651Z,39.39
2019-06-26T14:43:27.942Z,39.02
2019-06-26T14:46:03.208Z,38.54
2019-06-26T14:48:36.415Z,38.71
2019-06-26T14:51:09.937Z,38.85
2019-06-26T14:53:41.997Z,38.90
2019-06-26T14:56:13.930Z,39.12
2019-06-26T14:58:47.491Z,39.04
2019-06-26T15:01:21.279Z,39.10
2019-06-26T15:03:56.657Z,39.18
2019-06-26T15:06:32.335Z,39.02
2019-06-26T15:09:10.083Z,38.94
2019-06-26T15:11:47.714Z,38.79
2019-06-26T15:14:21.268Z,38.86
2019-06-26T15:16:53.217Z,38.40
2019-06-26T15:19:27.450Z,38.27
2019-06-26T15:22:04.892Z,37.90
2019-06-26T15:24:38.384Z,37.83
2019-06-26T15:27:10.767Z,37.56
2019-06-26T15:29:45.565Z,37.74
2019-06-26T15:32:17.218Z,37.80
2019-06-26T15:34:50.617Z,37.95
2019-06-26T15:37:22.255Z,38.06
2019-06-26T15:39:53.909Z,38.19
2019-06-26T15:42:29.455Z,37.93
2019-06-26T15:45:02.119Z,37.57
2019-06-26T15:47:34.009Z,37.41
2019-06-26T15:50:10.785Z,37.57
2019-06-26T15:52:44.195Z,37.87
2019-06-26T15:55:19.145Z,37.95
2019-06-26T15:57:51.124Z,38.06
2019-06-26T16:00:25.157Z,38.01
2019-06-26T16:02:57.137Z,37.87
2019-06-26T16:05:33.339Z,37.93
2019-06-26T16:08:08.079Z,37.86
2019-06-26T16:10:46.651Z,37.72
2019-06-26T16:13:19.943Z,37.66
2019-06-26T16:15:56.434Z,37.73
2019-06-26T16:18:33.654Z,37.61
2019-06-26T16:21:06.896Z,37.59
2019-06-26T16:23:38.519Z,37.57
2019-06-26T16:26:11.684Z,37.43
2019-06-26T16:28:45.209Z,37.37
2019-06-26T16:31:22.139Z,37.35
2019-06-26T16:33:54.576Z,37.32
2019-06-26T16:36:26.595Z,37.18
2019-06-26T16:38:58.362Z,37.11
2019-06-26T16:41:30.054Z,37.15
2019-06-26T16:44:01.908Z,37.23
2019-06-26T16:46:34.875Z,37.16
2019-06-26T16:49:06.517Z,37.11
2019-06-26T16:51:40.011Z,37.13
2019-06-26T16:54:14.611Z,37.14
2019-06-26T16:56:46.363Z,37.14
2019-06-26T16:59:19.591Z,37.02
2019-06-26T17:01:52.027Z,36.91
2019-06-26T17:04:31.657Z,36.84
2019-06-26T17:07:08.675Z,36.75
2019-06-26T17:09:44.221Z,36.65
2019-06-26T17:12:14.561Z,36.50
2019-06-26T17:14:46.184Z,36.44
2019-06-26T17:17:17.942Z,36.40
2019-06-26T17:19:49.803Z,36.28
2019-06-26T17:22:21.512Z,36.18
2019-06-26T17:24:53.277Z,36.17
2019-06-26T17:27:25.048Z,35.99
2019-06-26T17:29:58.303Z,36.06
2019-06-26T17:32:30.025Z,36.04
2019-06-26T17:35:02.092Z,36.11
2019-06-26T17:37:34.338Z,36.09
2019-06-26T17:40:08.282Z,36.08
2019-06-26T17:42:40.493Z,35.91
2019-06-26T17:45:15.311Z,35.81
2019-06-26T17:47:46.950Z,35.65
2019-06-26T17:50:19.673Z,35.51
2019-06-26T17:52:51.534Z,35.29
2019-06-26T17:55:23.327Z,35.15
2019-06-26T17:57:55.063Z,34.99
2019-06-26T18:00:31.510Z,34.93
2019-06-26T18:03:04.551Z,34.83
2019-06-26T18:05:36.409Z,34.75
2019-06-26T18:08:08.168Z,34.70
2019-06-26T18:10:39.959Z,34.66
2019-06-26T18:13:11.701Z,34.59
2019-06-26T18:15:44.554Z,34.56
2019-06-26T18:18:17.371Z,34.53
2019-06-26T18:20:49.115Z,34.44
2019-06-26T18:23:33.613Z,34.44
2019-06-26T18:26:11.557Z,34.41
2019-06-26T18:28:27.941Z,34.40
2019-06-26T18:30:59.862Z,34.35
2019-06-26T18:33:31.641Z,34.29
2019-06-26T18:36:03.398Z,34.27
2019-06-26T18:38:35.122Z,34.18
2019-06-26T18:41:10.991Z,34.05
2019-06-26T18:43:48.435Z,33.91
2019-06-26T18:46:20.190Z,33.71
2019-06-26T18:48:52.031Z,33.57
2019-06-26T18:51:24.054Z,33.44
2019-06-26T18:53:55.792Z,33.35
2019-06-26T18:56:27.538Z,33.24
2019-06-26T18:59:06.920Z,33.12
2019-06-26T19:01:49.773Z,33.01
2019-06-26T19:04:21.618Z,32.92
2019-06-26T19:06:53.359Z,32.79
2019-06-26T19:09:25.116Z,32.68
2019-06-26T19:11:56.867Z,32.57
2019-06-26T19:14:28.599Z,32.41
2019-06-26T19:17:00.441Z,32.31
2019-06-26T19:19:34.318Z,32.18
2019-06-26T19:22:06.424Z,32.11
2019-06-26T19:24:38.472Z,32.07
2019-06-26T19:27:11.711Z,32.09
2019-06-26T19:29:43.466Z,32.05
2019-06-26T19:32:15.240Z,32.01
2019-06-26T19:34:46.964Z,31.94
2019-06-26T19:37:20.544Z,31.94
2019-06-26T19:39:54.287Z,31.86
2019-06-26T19:42:27.278Z,31.94
2019-06-26T19:44:58.921Z,31.89
2019-06-26T19:47:31.701Z,31.88
2019-06-26T19:50:07.748Z,31.87
2019-06-26T19:52:39.595Z,31.82
2019-06-26T19:55:12.235Z,31.71
2019-06-26T19:57:44.891Z,31.64
2019-06-26T20:00:18.333Z,31.56
2019-06-26T20:02:52.652Z,31.49
2019-06-26T20:05:26.223Z,31.35
2019-06-26T20:08:02.579Z,31.29
2019-06-26T20:10:39.870Z,31.19
2019-06-26T20:13:08.050Z,31.09
2019-06-26T20:15:40.392Z,31.04
2019-06-26T20:18:14.208Z,30.96
2019-06-26T20:20:46.012Z,30.90
2019-06-26T20:23:19.904Z,30.80
2019-06-26T20:25:51.986Z,30.75
2019-06-26T20:28:25.568Z,30.73
2019-06-26T20:30:58.683Z,30.51
2019-06-26T20:33:31.055Z,30.56
2019-06-26T20:36:05.351Z,30.52
2019-06-26T20:38:39.173Z,30.46
2019-06-26T20:41:11.078Z,30.33
2019-06-26T20:43:44.431Z,30.33
2019-06-26T20:46:17.825Z,30.10
2019-06-26T20:48:49.853Z,30.10
2019-06-26T20:51:23.933Z,30.03
2019-06-26T20:53:57.661Z,29.91
2019-06-26T20:56:31.418Z,29.82
2019-06-26T20:59:03.381Z,29.82
2019-06-26T21:01:36.976Z,29.72
2019-06-26T21:04:10.455Z,29.68
2019-06-26T21:06:42.221Z,29.59
2019-06-26T21:09:15.235Z,29.52
2019-06-26T21:11:46.987Z,29.44
2019-06-26T21:14:19.990Z,29.34
2019-06-26T21:16:51.796Z,29.26
2019-06-26T21:19:23.489Z,29.17
2019-06-26T21:21:55.354Z,29.08
2019-06-26T21:24:27.376Z,28.94
2019-06-26T21:27:00.705Z,28.84
2019-06-26T21:29:32.886Z,28.77
2019-06-26T21:32:06.250Z,28.68
2019-06-26T21:34:38.133Z,28.58
2019-06-26T21:37:11.070Z,28.47
2019-06-26T21:39:42.883Z,28.39
2019-06-26T21:42:14.907Z,28.30
2019-06-26T21:44:46.654Z,28.21
2019-06-26T21:47:19.708Z,28.11
2019-06-26T21:49:51.659Z,28.06
2019-06-26T21:52:23.509Z,27.95
2019-06-26T21:54:55.440Z,27.90
2019-06-26T21:57:45.062Z,27.81
2019-06-26T22:00:38.532Z,27.71
2019-06-26T22:03:28.258Z,27.63
2019-06-26T22:06:04.648Z,27.53
2019-06-26T22:08:54.576Z,27.45
2019-06-26T22:11:26.587Z,27.39
2019-06-26T22:13:58.248Z,27.29
2019-06-26T22:16:30.287Z,27.23
2019-06-26T22:19:02.646Z,27.16
2019-06-26T22:21:35.727Z,27.09
2019-06-26T22:24:07.770Z,27.03
2019-06-26T22:26:39.530Z,26.96
2019-06-26T22:29:11.276Z,26.87
2019-06-26T22:31:43.016Z,26.85
2019-06-26T22:34:14.767Z,26.80
2019-06-26T22:36:51.677Z,26.75
2019-06-26T22:39:21.402Z,26.71
2019-06-26T22:41:53.086Z,26.65
2019-06-26T22:44:25.803Z,26.61
2019-06-26T22:46:57.557Z,26.56
2019-06-26T22:49:29.311Z,26.51
2019-06-26T22:52:01.108Z,26.46
2019-06-26T22:54:32.896Z,26.44
2019-06-26T22:57:04.677Z,26.39
2019-06-26T22:59:36.723Z,26.31
2019-06-26T23:02:08.728Z,26.27
2019-06-26T23:04:40.471Z,26.17
2019-06-26T23:07:12.314Z,26.13
2019-06-26T23:09:44.208Z,26.06
2019-06-26T23:12:16.223Z,25.97
2019-06-26T23:14:51.622Z,25.91
2019-06-26T23:17:26.664Z,25.82
2019-06-26T23:19:58.416Z,25.75
2019-06-26T23:22:31.094Z,25.66
2019-06-26T23:25:03.410Z,25.61
2019-06-26T23:27:35.240Z,25.53
2019-06-26T23:30:19.255Z,25.48
2019-06-26T23:32:51.199Z,25.42
2019-06-26T23:35:23.123Z,25.37
2019-06-26T23:37:56.746Z,25.33
2019-06-26T23:40:29.873Z,25.28
2019-06-26T23:43:01.708Z,25.25
2019-06-26T23:45:34.326Z,25.20
2019-06-26T23:48:06.196Z,25.14
2019-06-26T23:50:38.518Z,25.08
2019-06-26T23:53:10.350Z,25.04
2019-06-26T23:55:42.080Z,25.00
2019-06-26T23:58:13.987Z,24.93
